Time;durP1;ratioP1;P1;durP2;ratioP2;P2;SDS_P1;SDS_P2;PMS_P1;PMS_P2;Temp;Humidity;BMP_temperature;BMP_pressure;BME280_temperature;BME280_humidity;BME280_pressure;Samples;Min_cycle;Max_cycle;Signal;HPM_P1;HPM_P2
2024/01/13 00:02:21;;;;;;;8.15;3.97;;;3.70;99.90;;;;;;5015969;28;20045;-77
2024/01/13 00:04:49;;;;;;;6.00;3.53;;;3.70;99.90;;;;;;4974459;28;20053;-77
2024/01/13 00:07:16;;;;;;;7.50;3.83;;;3.70;99.90;;;;;;4998160;28;20131;-77
2024/01/13 00:09:43;;;;;;;7.72;4.32;;;3.70;99.90;;;;;;5003200;28;20042;-77
2024/01/13 00:12:10;;;;;;;7.32;4.05;;;3.70;99.90;;;;;;5028838;28;20095;-77
2024/01/13 00:14:37;;;;;;;8.52;4.57;;;3.70;99.90;;;;;;5016895;28;20115;-77
2024/01/13 00:17:04;;;;;;;7.45;4.55;;;3.70;99.90;;;;;;5000433;28;20096;-78
2024/01/13 00:19:33;;;;;;;10.27;5.90;;;3.70;99.90;;;;;;5000380;28;20502;-77
2024/01/13 00:22:01;;;;;;;9.63;5.70;;;3.70;99.90;;;;;;5025916;28;20080;-77
2024/01/13 00:24:28;;;;;;;11.82;6.82;;;3.70;99.90;;;;;;5015670;28;20045;-77
2024/01/13 00:26:55;;;;;;;11.65;7.10;;;3.70;99.90;;;;;;5033849;28;20046;-77
2024/01/13 00:29:25;;;;;;;12.93;7.28;;;3.70;99.90;;;;;;4999352;28;20057;-77
2024/01/13 00:31:51;;;;;;;10.23;6.53;;;3.70;99.90;;;;;;5032852;28;20049;-77
2024/01/13 00:34:18;;;;;;;10.68;6.47;;;3.70;99.90;;;;;;5013031;28;20057;-77
2024/01/13 00:36:46;;;;;;;10.57;6.78;;;3.70;99.90;;;;;;5030865;28;20076;-77
2024/01/13 00:39:13;;;;;;;10.82;6.38;;;3.70;99.90;;;;;;5032653;28;20041;-77
2024/01/13 00:41:39;;;;;;;11.73;7.57;;;3.70;99.90;;;;;;5002568;28;20434;-77
2024/01/13 00:44:06;;;;;;;12.63;8.43;;;3.70;99.90;;;;;;4999548;28;20418;-77
2024/01/13 00:46:33;;;;;;;14.75;9.15;;;3.70;99.90;;;;;;5013453;28;20482;-77
2024/01/13 00:49:01;;;;;;;13.23;8.90;;;3.70;99.90;;;;;;5013060;28;20045;-78
2024/01/13 00:51:30;;;;;;;14.30;8.40;;;3.70;99.90;;;;;;5009012;28;20052;-78
2024/01/13 00:53:57;;;;;;;15.13;9.40;;;3.70;99.90;;;;;;4986800;28;20056;-77
2024/01/13 00:56:24;;;;;;;16.50;10.60;;;3.70;99.90;;;;;;4983950;28;20140;-77
2024/01/13 00:58:51;;;;;;;20.50;11.60;;;3.70;99.90;;;;;;4980483;28;20046;-77
2024/01/13 01:01:18;;;;;;;19.35;10.73;;;3.70;99.90;;;;;;5016075;28;20486;-77
2024/01/13 01:03:46;;;;;;;21.48;11.80;;;3.70;99.90;;;;;;5027539;28;20132;-77
2024/01/13 01:06:15;;;;;;;18.88;10.73;;;3.70;99.90;;;;;;5016136;28;20049;-78
2024/01/13 01:08:42;;;;;;;17.65;9.60;;;3.70;99.90;;;;;;5016220;28;20052;-78
2024/01/13 01:11:11;;;;;;;16.23;9.77;;;3.70;99.90;;;;;;5012659;28;20048;-78
2024/01/13 01:13:39;;;;;;;16.67;9.30;;;3.70;99.90;;;;;;5010034;28;20045;-78
2024/01/13 01:16:07;;;;;;;15.63;9.52;;;3.70;99.90;;;;;;5033281;28;20050;-77
2024/01/13 01:18:34;;;;;;;17.48;9.00;;;3.70;99.90;;;;;;5020059;28;22028;-77
2024/01/13 01:21:13;;;;;;;16.30;9.35;;;3.70;99.90;;;;;;5027783;28;20119;-77
2024/01/13 01:23:42;;;;;;;17.07;11.47;;;3.70;99.90;;;;;;5016170;28;20088;-77
2024/01/13 01:26:10;;;;;;;17.70;11.18;;;3.70;99.90;;;;;;5032091;28;20095;-77
2024/01/13 01:28:37;;;;;;;20.52;11.35;;;3.70;99.90;;;;;;4999298;28;20045;-77
2024/01/13 01:31:04;;;;;;;24.15;13.02;;;3.70;99.90;;;;;;5012380;28;20049;-76
2024/01/13 01:33:32;;;;;;;22.98;13.07;;;3.70;99.90;;;;;;5001589;28;20060;-77
2024/01/13 01:35:59;;;;;;;25.17;13.73;;;3.70;99.90;;;;;;5031898;28;20053;-77
2024/01/13 01:38:29;;;;;;;23.35;13.13;;;3.70;99.90;;;;;;5015371;28;20045;-76
2024/01/13 01:41:09;;;;;;;24.75;12.77;;;3.60;99.90;;;;;;5031985;28;20033;-77
2024/01/13 01:43:36;;;;;;;17.83;10.73;;;3.60;99.90;;;;;;4994806;28;20037;-77
2024/01/13 01:46:04;;;;;;;18.25;11.35;;;3.70;99.90;;;;;;5015001;28;20053;-77
2024/01/13 01:48:41;;;;;;;15.43;8.80;;;3.70;99.90;;;;;;5031557;28;20033;-77
2024/01/13 01:51:15;;;;;;;13.77;8.23;;;3.70;99.90;;;;;;5014436;28;20037;-77
2024/01/13 01:53:45;;;;;;;19.58;9.60;;;3.70;99.90;;;;;;5015445;28;20148;-77
2024/01/13 01:56:16;;;;;;;19.08;9.38;;;3.70;99.90;;;;;;5032995;28;20481;-77
2024/01/13 01:58:46;;;;;;;20.48;11.75;;;3.70;99.90;;;;;;5022633;28;20065;-77
2024/01/13 02:01:14;;;;;;;22.40;12.63;;;3.70;99.90;;;;;;5008200;28;20046;-77
2024/01/13 02:03:41;;;;;;;22.02;12.43;;;3.70;99.90;;;;;;5003602;28;20558;-77
2024/01/13 02:06:10;;;;;;;21.85;13.10;;;3.70;99.90;;;;;;5024073;28;20080;-77
2024/01/13 02:08:38;;;;;;;20.58;12.00;;;3.70;99.90;;;;;;5034028;28;20048;-77
2024/01/13 02:11:12;;;;;;;22.67;12.40;;;3.70;99.90;;;;;;5019338;28;20049;-77
2024/01/13 02:13:47;;;;;;;23.92;12.57;;;3.70;99.90;;;;;;5029819;28;20129;-78
2024/01/13 02:16:16;;;;;;;20.63;12.40;;;3.60;99.90;;;;;;5023896;28;20045;-77
2024/01/13 02:18:43;;;;;;;26.88;12.82;;;3.60;99.90;;;;;;5019084;28;20072;-77
2024/01/13 02:21:12;;;;;;;22.70;12.18;;;3.60;99.90;;;;;;5035286;28;20041;-77
2024/01/13 02:23:42;;;;;;;20.85;11.63;;;3.60;99.90;;;;;;5036647;28;20049;-77
2024/01/13 02:26:10;;;;;;;24.08;12.52;;;3.60;99.90;;;;;;5036497;28;20042;-77
2024/01/13 02:28:37;;;;;;;21.30;11.32;;;3.50;99.90;;;;;;5035470;28;20043;-77
2024/01/13 02:31:17;;;;;;;22.85;12.38;;;3.50;99.90;;;;;;5017234;28;20449;-77
2024/01/13 02:33:50;;;;;;;21.25;11.65;;;3.50;99.90;;;;;;5003694;28;20045;-77
2024/01/13 02:36:20;;;;;;;23.02;12.57;;;3.50;99.90;;;;;;5015584;28;20656;-78
2024/01/13 02:38:47;;;;;;;21.13;12.00;;;3.50;99.90;;;;;;5031394;28;20041;-77
2024/01/13 02:41:14;;;;;;;20.30;10.07;;;3.40;99.90;;;;;;5002550;28;20049;-77
2024/01/13 02:43:41;;;;;;;16.55;9.07;;;3.40;99.90;;;;;;5034945;28;20460;-77
2024/01/13 02:46:08;;;;;;;17.27;9.55;;;3.50;99.90;;;;;;5018643;28;20041;-77
2024/01/13 02:48:40;;;;;;;17.23;9.07;;;3.50;99.90;;;;;;5018764;28;20045;-77
2024/01/13 02:51:13;;;;;;;14.02;7.50;;;3.50;99.90;;;;;;5018613;28;20041;-77
2024/01/13 02:53:41;;;;;;;16.73;9.02;;;3.50;99.90;;;;;;5034882;28;20050;-78
2024/01/13 02:56:08;;;;;;;15.80;8.48;;;3.50;99.90;;;;;;4999092;28;20124;-77
2024/01/13 02:58:35;;;;;;;18.05;9.57;;;3.50;99.90;;;;;;5030488;28;20037;-77
2024/01/13 03:01:15;;;;;;;18.60;9.75;;;3.50;99.90;;;;;;4989980;28;20129;-78
2024/01/13 03:03:49;;;;;;;20.35;10.43;;;3.40;99.90;;;;;;5020668;28;20042;-78
2024/01/13 03:06:20;;;;;;;18.58;10.05;;;3.40;99.90;;;;;;5015289;28;20052;-77
2024/01/13 03:08:47;;;;;;;18.38;10.15;;;3.50;99.90;;;;;;5030297;28;20038;-77
2024/01/13 03:11:15;;;;;;;18.05;9.45;;;3.40;99.90;;;;;;5034433;28;20043;-78
2024/01/13 03:13:46;;;;;;;17.40;9.18;;;3.40;99.90;;;;;;5015065;28;20046;-77
2024/01/13 03:16:14;;;;;;;19.00;10.13;;;3.40;99.90;;;;;;5033889;28;20096;-77
2024/01/13 03:18:41;;;;;;;17.48;9.63;;;3.40;99.90;;;;;;5018248;28;20410;-77
2024/01/13 03:21:10;;;;;;;16.48;8.02;;;3.40;99.90;;;;;;5034567;28;20099;-77
2024/01/13 03:23:41;;;;;;;14.43;7.80;;;3.40;99.90;;;;;;5011957;28;20137;-77
2024/01/13 03:26:09;;;;;;;13.75;7.55;;;3.40;99.90;;;;;;4998829;28;20044;-77
2024/01/13 03:28:36;;;;;;;14.57;8.17;;;3.50;99.90;;;;;;5017989;28;20049;-78
2024/01/13 03:31:13;;;;;;;15.87;8.63;;;3.50;99.90;;;;;;4999030;28;20045;-77
2024/01/13 03:33:44;;;;;;;15.55;8.15;;;3.50;99.90;;;;;;5010854;28;20073;-78
2024/01/13 03:36:13;;;;;;;16.80;8.98;;;3.50;99.90;;;;;;5034199;28;20045;-77
2024/01/13 03:38:40;;;;;;;17.52;9.18;;;3.50;99.90;;;;;;5017782;28;20045;-77
2024/01/13 03:41:17;;;;;;;20.42;11.60;;;3.50;99.90;;;;;;5018043;28;20099;-77
2024/01/13 03:43:44;;;;;;;15.88;9.20;;;3.50;99.90;;;;;;5034253;28;20037;-77
2024/01/13 03:46:12;;;;;;;21.27;12.30;;;3.50;99.90;;;;;;5006255;28;20576;-77
2024/01/13 03:48:39;;;;;;;22.67;12.55;;;3.50;99.90;;;;;;5031834;28;20038;-77
2024/01/13 03:51:08;;;;;;;20.05;10.55;;;3.50;99.90;;;;;;5023938;28;20084;-77
2024/01/13 03:53:35;;;;;;;19.25;10.10;;;3.50;99.90;;;;;;5030317;28;20140;-77
2024/01/13 03:56:08;;;;;;;19.73;11.25;;;3.50;99.90;;;;;;5014068;28;20137;-77
2024/01/13 03:58:37;;;;;;;21.52;11.35;;;3.60;99.90;;;;;;5013415;28;20136;-77
2024/01/13 04:01:04;;;;;;;25.00;12.75;;;3.60;99.90;;;;;;4997606;28;20042;-77
2024/01/13 04:03:32;;;;;;;25.15;12.10;;;3.60;99.90;;;;;;5008637;28;20069;-77
2024/01/13 04:06:02;;;;;;;24.52;12.07;;;3.60;99.90;;;;;;5001145;28;20100;-77
2024/01/13 04:08:32;;;;;;;24.98;11.88;;;3.50;99.90;;;;;;5026960;28;20041;-77
2024/01/13 04:10:59;;;;;;;27.55;14.23;;;3.60;99.90;;;;;;5033255;28;20107;-77
2024/01/13 04:13:26;;;;;;;23.60;12.55;;;3.60;99.90;;;;;;4997423;28;20070;-78
2024/01/13 04:15:53;;;;;;;25.88;12.50;;;3.60;99.90;;;;;;5016945;28;20049;-77
2024/01/13 04:18:20;;;;;;;24.17;12.88;;;3.60;99.90;;;;;;5014408;28;20045;-77
2024/01/13 04:20:47;;;;;;;24.65;12.50;;;3.60;99.90;;;;;;5034354;28;20059;-77
2024/01/13 04:23:29;;;;;;;21.67;11.43;;;3.60;99.90;;;;;;5014000;28;20042;-77
2024/01/13 04:25:56;;;;;;;26.95;13.95;;;3.60;99.90;;;;;;5016146;28;20049;-77
2024/01/13 04:28:23;;;;;;;25.30;13.63;;;3.60;99.90;;;;;;5016229;28;20053;-77
2024/01/13 04:30:50;;;;;;;27.92;14.07;;;3.60;99.90;;;;;;5024180;28;20091;-77
2024/01/13 04:33:17;;;;;;;25.40;13.50;;;3.60;99.90;;;;;;5016555;28;20067;-77
2024/01/13 04:35:44;;;;;;;33.92;15.57;;;3.60;99.90;;;;;;5012993;28;20050;-77
2024/01/13 04:38:11;;;;;;;30.52;16.40;;;3.60;99.90;;;;;;5012381;28;20130;-77
2024/01/13 04:40:38;;;;;;;29.42;15.70;;;3.60;99.90;;;;;;5016186;28;20107;-77
2024/01/13 04:43:08;;;;;;;31.00;16.13;;;3.60;99.90;;;;;;5000321;28;20065;-77
2024/01/13 04:45:35;;;;;;;32.25;16.60;;;3.60;99.90;;;;;;5028334;28;20048;-77
2024/01/13 04:48:02;;;;;;;29.60;16.63;;;3.60;99.90;;;;;;5016334;28;20486;-77
2024/01/13 04:50:29;;;;;;;28.88;16.08;;;3.60;99.90;;;;;;5016453;28;20084;-77
2024/01/13 04:52:56;;;;;;;30.17;16.15;;;3.60;99.90;;;;;;5027828;28;20111;-77
2024/01/13 04:55:23;;;;;;;33.50;17.15;;;3.60;99.90;;;;;;5031045;28;20099;-77
2024/01/13 04:57:50;;;;;;;34.97;18.33;;;3.60;99.90;;;;;;5016269;28;20041;-77
2024/01/13 05:00:17;;;;;;;28.23;16.10;;;3.60;99.90;;;;;;4999818;28;20045;-77
2024/01/13 05:02:44;;;;;;;31.10;15.13;;;3.60;99.90;;;;;;5032519;28;20508;-77
2024/01/13 05:05:20;;;;;;;31.38;17.27;;;3.60;99.90;;;;;;5002322;28;20103;-77
2024/01/13 05:07:47;;;;;;;26.95;14.85;;;3.70;99.90;;;;;;5000379;28;20048;-77
2024/01/13 05:10:15;;;;;;;31.65;15.93;;;3.70;99.90;;;;;;4977621;28;20056;-77
2024/01/13 05:12:43;;;;;;;27.63;15.93;;;3.70;99.90;;;;;;5015035;28;20521;-77
2024/01/13 05:15:10;;;;;;;25.65;14.55;;;3.70;99.90;;;;;;5032251;28;20083;-78
2024/01/13 05:17:37;;;;;;;26.92;15.55;;;3.70;99.90;;;;;;5032247;28;20053;-77
2024/01/13 05:20:08;;;;;;;27.67;13.90;;;3.70;99.90;;;;;;5032057;28;20536;-77
2024/01/13 05:22:34;;;;;;;25.15;13.40;;;3.70;99.90;;;;;;5000468;28;20037;-77
2024/01/13 05:25:08;;;;;;;23.45;12.52;;;3.70;99.90;;;;;;5015571;28;20095;-77
2024/01/13 05:27:35;;;;;;;23.58;12.18;;;3.70;99.90;;;;;;4994656;28;20033;-77
2024/01/13 05:30:03;;;;;;;26.55;13.93;;;3.70;99.90;;;;;;4977433;28;20046;-77
2024/01/13 05:32:30;;;;;;;25.48;13.43;;;3.70;99.90;;;;;;4997480;28;20053;-78
2024/01/13 05:34:57;;;;;;;22.73;13.00;;;3.70;99.90;;;;;;4983372;28;20056;-78
2024/01/13 05:37:24;;;;;;;26.30;13.73;;;3.70;99.90;;;;;;5033087;28;20045;-77
2024/01/13 05:39:51;;;;;;;24.23;14.25;;;3.70;99.90;;;;;;5013810;28;20053;-78
2024/01/13 05:42:20;;;;;;;24.95;14.43;;;3.70;99.90;;;;;;5016639;28;20446;-77
2024/01/13 05:44:47;;;;;;;28.95;16.15;;;3.70;99.90;;;;;;5009688;28;20145;-78
2024/01/13 05:47:14;;;;;;;30.48;16.70;;;3.70;99.90;;;;;;5031822;28;20128;-77
2024/01/13 05:49:42;;;;;;;28.58;16.63;;;3.70;99.90;;;;;;5031848;28;20045;-77
2024/01/13 05:52:10;;;;;;;31.02;17.85;;;3.70;99.90;;;;;;5001562;28;20042;-77
2024/01/13 05:54:40;;;;;;;30.63;17.73;;;3.70;99.90;;;;;;4999132;28;20103;-77
2024/01/13 05:57:07;;;;;;;30.95;16.00;;;3.70;99.90;;;;;;5031693;28;20052;-77
2024/01/13 05:59:35;;;;;;;29.48;16.13;;;3.70;99.90;;;;;;4989548;28;20088;-77
2024/01/13 06:02:02;;;;;;;26.83;16.83;;;3.70;99.90;;;;;;5027687;28;20049;-77
2024/01/13 06:04:29;;;;;;;27.48;15.18;;;3.70;99.90;;;;;;5031699;28;20049;-77
2024/01/13 06:06:56;;;;;;;26.83;15.80;;;3.70;99.90;;;;;;5015530;28;20481;-77
2024/01/13 06:09:23;;;;;;;29.13;16.13;;;3.70;99.90;;;;;;5032730;28;20045;-78
2024/01/13 06:11:50;;;;;;;31.60;16.75;;;3.60;99.90;;;;;;5015153;28;20049;-77
2024/01/13 06:14:18;;;;;;;31.23;16.23;;;3.70;99.90;;;;;;4983163;28;20478;-77
2024/01/13 06:16:45;;;;;;;28.85;14.90;;;3.60;99.90;;;;;;5015267;28;20061;-77
2024/01/13 06:19:12;;;;;;;23.90;14.45;;;3.70;99.90;;;;;;4999014;28;20045;-77
2024/01/13 06:21:43;;;;;;;24.77;14.60;;;3.70;99.90;;;;;;4999084;28;20049;-77
2024/01/13 06:24:11;;;;;;;24.60;14.65;;;3.70;99.90;;;;;;5031389;28;20042;-77
2024/01/13 06:26:40;;;;;;;23.73;13.88;;;3.70;99.90;;;;;;5014732;28;20100;-77
2024/01/13 06:29:08;;;;;;;26.73;15.00;;;3.70;99.90;;;;;;5031365;28;20063;-77
2024/01/13 06:31:35;;;;;;;30.80;17.95;;;3.70;99.90;;;;;;5031281;28;20041;-78
2024/01/13 06:34:02;;;;;;;29.77;17.05;;;3.70;99.90;;;;;;5015239;28;20153;-77
2024/01/13 06:36:30;;;;;;;25.98;15.15;;;3.70;99.90;;;;;;5031293;28;20460;-77
2024/01/13 06:38:56;;;;;;;28.13;16.05;;;3.70;99.90;;;;;;5011583;28;20034;-77
2024/01/13 06:41:24;;;;;;;26.10;14.60;;;3.70;99.90;;;;;;5026503;28;20124;-77
2024/01/13 06:43:51;;;;;;;23.08;12.82;;;3.70;99.90;;;;;;5011599;28;20041;-77
2024/01/13 06:46:18;;;;;;;23.35;13.65;;;3.70;99.90;;;;;;5023742;28;20045;-77
2024/01/13 06:48:45;;;;;;;21.70;12.40;;;3.70;99.90;;;;;;5014743;28;20052;-77
2024/01/13 06:51:14;;;;;;;21.92;12.57;;;3.70;99.90;;;;;;5015069;28;20046;-77
2024/01/13 06:53:41;;;;;;;20.90;12.70;;;3.70;99.90;;;;;;5015599;28;20041;-77
2024/01/13 06:56:08;;;;;;;22.88;13.05;;;3.70;99.90;;;;;;5004691;28;20396;-77
2024/01/13 06:58:36;;;;;;;20.13;12.15;;;3.70;99.90;;;;;;5014148;28;20049;-77
2024/01/13 07:01:03;;;;;;;28.80;14.57;;;3.70;99.90;;;;;;4998049;28;20581;-77
2024/01/13 07:03:31;;;;;;;25.30;12.77;;;3.70;99.90;;;;;;4988277;28;20042;-77
2024/01/13 07:05:58;;;;;;;25.35;14.45;;;3.70;99.90;;;;;;5007571;28;20041;-77
2024/01/13 07:08:25;;;;;;;27.20;15.45;;;3.70;99.90;;;;;;5023246;28;20038;-77
2024/01/13 07:10:54;;;;;;;25.52;12.80;;;3.70;99.90;;;;;;5034611;28;20048;-77
2024/01/13 07:13:21;;;;;;;24.80;12.77;;;3.70;99.90;;;;;;5022439;28;20046;-77
2024/01/13 07:15:48;;;;;;;30.40;14.10;;;3.70;99.90;;;;;;5015606;28;20049;-78
2024/01/13 07:18:16;;;;;;;27.05;12.63;;;3.70;99.90;;;;;;5001647;28;20080;-78
2024/01/13 07:20:43;;;;;;;25.45;12.55;;;3.70;99.90;;;;;;5018032;28;20049;-78
2024/01/13 07:23:10;;;;;;;22.25;11.02;;;3.70;99.90;;;;;;5001711;28;20046;-78
2024/01/13 07:25:37;;;;;;;25.95;12.65;;;3.80;99.90;;;;;;5034316;28;20125;-78
2024/01/13 07:28:04;;;;;;;25.95;13.05;;;3.80;99.90;;;;;;5017880;28;20041;-78
2024/01/13 07:30:31;;;;;;;24.35;11.88;;;3.80;99.90;;;;;;5034255;28;20045;-78
2024/01/13 07:32:58;;;;;;;25.92;12.60;;;3.80;99.90;;;;;;5000049;28;20056;-78
2024/01/13 07:35:26;;;;;;;26.85;11.57;;;3.80;99.90;;;;;;5034087;28;20045;-78
2024/01/13 07:37:53;;;;;;;30.27;14.18;;;3.80;99.90;;;;;;5004874;28;20104;-77
2024/01/13 07:40:20;;;;;;;30.48;14.65;;;3.80;99.90;;;;;;4997646;28;20095;-77
2024/01/13 07:42:48;;;;;;;30.35;13.68;;;3.80;99.90;;;;;;5022646;28;20483;-77
2024/01/13 07:45:15;;;;;;;29.35;13.07;;;3.70;99.90;;;;;;4994347;28;20042;-77
2024/01/13 07:47:43;;;;;;;28.55;12.27;;;3.70;99.90;;;;;;5017651;28;20046;-77
2024/01/13 07:50:10;;;;;;;25.35;11.20;;;3.70;99.90;;;;;;5033853;28;20053;-77
2024/01/13 07:52:37;;;;;;;30.65;12.13;;;3.70;99.90;;;;;;5014093;28;20057;-77
2024/01/13 07:55:05;;;;;;;28.98;12.50;;;3.80;99.90;;;;;;5014709;28;20073;-77
2024/01/13 07:57:32;;;;;;;26.73;11.82;;;3.80;99.90;;;;;;4985369;28;20038;-78
2024/01/13 07:59:59;;;;;;;26.95;11.48;;;3.80;99.90;;;;;;5033677;28;20044;-77
2024/01/13 08:02:38;;;;;;;30.17;13.13;;;3.80;99.90;;;;;;5032535;28;20049;-77
2024/01/13 08:05:08;;;;;;;29.55;12.73;;;3.80;99.90;;;;;;5000960;28;20047;-78
2024/01/13 08:07:35;;;;;;;32.78;13.75;;;3.80;99.90;;;;;;5033331;28;20099;-78
2024/01/13 08:10:03;;;;;;;35.20;15.90;;;3.80;99.90;;;;;;5022205;28;20038;-78
2024/01/13 08:12:30;;;;;;;33.63;14.32;;;3.80;99.90;;;;;;5015201;28;20045;-77
2024/01/13 08:14:57;;;;;;;31.42;13.75;;;3.80;99.90;;;;;;5017149;28;20069;-77
2024/01/13 08:17:25;;;;;;;32.42;14.05;;;3.80;99.90;;;;;;5016858;28;20169;-78
2024/01/13 08:19:52;;;;;;;36.67;16.50;;;3.80;99.90;;;;;;5017184;28;20033;-78
2024/01/13 08:22:19;;;;;;;41.15;15.95;;;3.80;99.90;;;;;;4999766;28;20044;-78
2024/01/13 08:24:46;;;;;;;38.95;16.00;;;3.80;99.90;;;;;;4995202;28;20042;-78
2024/01/13 08:27:13;;;;;;;35.85;15.63;;;3.80;99.90;;;;;;5025844;28;20041;-78
2024/01/13 08:29:40;;;;;;;34.20;15.20;;;3.80;99.90;;;;;;5011236;28;20052;-78
2024/01/13 08:32:07;;;;;;;29.65;14.27;;;3.80;99.90;;;;;;5010121;28;20037;-78
2024/01/13 08:34:36;;;;;;;30.50;12.90;;;3.90;99.90;;;;;;5016532;28;20470;-78
2024/01/13 08:37:05;;;;;;;34.38;15.27;;;3.90;99.90;;;;;;5000417;28;20568;-77
2024/01/13 08:39:32;;;;;;;36.88;17.38;;;3.90;99.90;;;;;;5025700;28;20099;-77
2024/01/13 08:41:59;;;;;;;36.97;16.08;;;3.90;99.90;;;;;;5016240;28;20516;-77
2024/01/13 08:44:27;;;;;;;34.53;15.55;;;3.90;99.90;;;;;;5004494;28;20095;-77
2024/01/13 08:46:54;;;;;;;33.65;15.70;;;3.90;99.90;;;;;;4997847;28;20088;-77
2024/01/13 08:49:21;;;;;;;36.85;16.92;;;3.90;99.90;;;;;;4996859;28;20037;-78
2024/01/13 08:51:48;;;;;;;35.97;16.92;;;3.90;99.90;;;;;;5010653;28;20045;-77
2024/01/13 08:54:15;;;;;;;37.90;17.23;;;3.90;99.90;;;;;;5008426;28;20046;-78
2024/01/13 08:56:43;;;;;;;32.65;16.20;;;3.90;99.90;;;;;;5007374;28;20057;-78
2024/01/13 08:59:10;;;;;;;35.00;15.88;;;3.90;99.90;;;;;;5033699;28;20049;-78
2024/01/13 09:01:37;;;;;;;31.35;14.02;;;3.90;99.90;;;;;;5015635;28;20037;-78
2024/01/13 09:04:08;;;;;;;31.50;14.30;;;3.90;99.90;;;;;;5016098;28;20045;-78
2024/01/13 09:06:36;;;;;;;28.45;14.93;;;3.90;99.90;;;;;;5015921;28;20473;-78
2024/01/13 09:09:04;;;;;;;26.80;12.52;;;4.00;99.90;;;;;;5032058;28;20498;-78
2024/01/13 09:11:32;;;;;;;21.93;10.53;;;4.00;99.90;;;;;;5007894;28;20053;-78
2024/01/13 09:14:10;;;;;;;22.05;10.73;;;4.00;99.90;;;;;;5006296;28;20069;-78
2024/01/13 09:16:38;;;;;;;23.00;10.80;;;4.00;99.90;;;;;;5015397;28;20049;-78
2024/01/13 09:19:06;;;;;;;21.02;10.55;;;4.00;99.90;;;;;;5031791;28;20033;-77
2024/01/13 09:21:33;;;;;;;20.50;9.93;;;4.00;99.90;;;;;;5015873;28;20038;-78
2024/01/13 09:24:09;;;;;;;25.98;12.07;;;4.00;99.90;;;;;;5016884;28;20091;-78
2024/01/13 09:26:45;;;;;;;25.90;12.37;;;4.10;99.90;;;;;;5032032;28;20069;-78
2024/01/13 09:29:17;;;;;;;26.40;13.48;;;4.00;99.90;;;;;;5008644;28;20041;-78
2024/01/13 09:31:47;;;;;;;29.33;13.35;;;4.10;99.90;;;;;;5018198;28;20129;-78
2024/01/13 09:34:15;;;;;;;28.27;13.70;;;4.10;99.90;;;;;;4989626;28;20054;-78
2024/01/13 09:36:42;;;;;;;22.77;12.55;;;4.00;99.90;;;;;;5015609;28;20041;-78
2024/01/13 09:39:16;;;;;;;25.15;12.95;;;4.00;99.90;;;;;;5023278;28;20050;-79
2024/01/13 09:41:45;;;;;;;23.90;12.98;;;4.00;99.90;;;;;;5021510;28;20115;-78
2024/01/13 09:44:16;;;;;;;23.40;12.73;;;4.10;99.90;;;;;;5023267;28;20511;-78
2024/01/13 09:46:43;;;;;;;25.25;13.27;;;4.10;99.90;;;;;;5019236;28;20057;-78
2024/01/13 09:49:12;;;;;;;23.20;12.38;;;4.10;99.90;;;;;;5003588;28;20085;-80
2024/01/13 09:51:40;;;;;;;25.20;13.35;;;4.00;99.90;;;;;;5015656;28;20081;-79
2024/01/13 09:54:27;;;;;;;22.75;13.20;;;4.00;99.90;;;;;;5031808;28;20477;-79
2024/01/13 09:56:57;;;;;;;24.10;13.63;;;4.10;99.90;;;;;;4997557;28;20052;-78
2024/01/13 09:59:28;;;;;;;25.23;12.55;;;4.00;99.90;;;;;;5031616;28;20130;-78
2024/01/13 10:01:58;;;;;;;24.95;14.20;;;4.10;99.90;;;;;;5013677;28;20072;-79
2024/01/13 10:04:26;;;;;;;22.70;11.27;;;4.00;99.90;;;;;;5015365;28;20460;-79
2024/01/13 10:06:57;;;;;;;23.08;12.63;;;4.00;99.90;;;;;;5000039;28;20045;-78
2024/01/13 10:09:24;;;;;;;19.15;10.55;;;4.00;99.90;;;;;;5032746;28;20048;-86
2024/01/13 10:12:06;;;;;;;19.52;9.50;;;4.10;99.90;;;;;;5011618;28;20053;-77
2024/01/13 10:14:38;;;;;;;17.08;9.38;;;4.10;99.90;;;;;;5025606;28;20084;-78
2024/01/13 10:17:07;;;;;;;16.45;9.38;;;4.10;99.90;;;;;;5008518;28;20108;-77
2024/01/13 10:19:38;;;;;;;14.65;8.05;;;4.10;99.90;;;;;;4976452;28;20573;-77
2024/01/13 10:22:06;;;;;;;15.70;8.73;;;4.10;99.90;;;;;;5024968;28;20076;-78
2024/01/13 10:24:34;;;;;;;16.00;7.95;;;4.10;99.90;;;;;;5031326;28;20405;-78
2024/01/13 10:27:04;;;;;;;15.40;7.85;;;4.10;99.90;;;;;;5036509;28;20037;-78
2024/01/13 10:29:32;;;;;;;12.50;6.15;;;4.10;99.90;;;;;;5035324;28;20439;-77
2024/01/13 10:32:01;;;;;;;12.45;5.78;;;4.10;99.90;;;;;;5035239;28;20163;-77
2024/01/13 10:34:30;;;;;;;14.80;6.10;;;4.10;99.90;;;;;;5015359;28;20050;-77
2024/01/13 10:37:10;;;;;;;12.20;6.80;;;4.10;99.90;;;;;;5018584;28;20438;-77
2024/01/13 10:39:38;;;;;;;12.60;6.63;;;4.10;99.90;;;;;;5003032;28;20493;-78
2024/01/13 10:42:09;;;;;;;14.07;6.53;;;4.10;99.90;;;;;;5012835;28;20104;-78
2024/01/13 10:44:43;;;;;;;15.15;7.85;;;4.10;99.90;;;;;;5029180;28;20120;-78
2024/01/13 10:47:14;;;;;;;14.13;7.28;;;4.10;99.90;;;;;;5021168;28;20137;-78
2024/01/13 10:49:45;;;;;;;15.38;8.38;;;4.10;99.90;;;;;;5006457;28;20064;-77
2024/01/13 10:52:16;;;;;;;17.65;8.27;;;4.10;99.90;;;;;;5033986;28;20136;-78
2024/01/13 10:54:45;;;;;;;17.98;9.57;;;4.10;99.90;;;;;;5014872;28;20088;-78
2024/01/13 10:57:14;;;;;;;19.30;10.82;;;4.10;99.90;;;;;;5033153;28;20452;-79
2024/01/13 10:59:43;;;;;;;18.80;10.15;;;4.10;99.90;;;;;;5012044;28;20049;-77
2024/01/13 11:02:12;;;;;;;18.58;10.20;;;4.10;99.90;;;;;;5035905;28;20041;-77
2024/01/13 11:04:42;;;;;;;21.30;10.88;;;4.10;99.90;;;;;;5035990;28;20112;-78
2024/01/13 11:07:09;;;;;;;22.45;11.70;;;4.10;99.90;;;;;;5018236;28;20046;-77
2024/01/13 11:09:38;;;;;;;28.75;15.40;;;4.10;99.90;;;;;;5019822;28;20660;-78
2024/01/13 11:12:25;;;;;;;22.90;13.10;;;4.10;99.90;;;;;;5029494;28;20052;-78
2024/01/13 11:15:14;;;;;;;24.20;12.90;;;4.10;99.90;;;;;;5021024;28;20057;-77
2024/01/13 11:17:41;;;;;;;22.60;12.25;;;4.10;99.90;;;;;;5016848;28;20053;-81
2024/01/13 11:20:10;;;;;;;27.08;14.32;;;4.00;99.90;;;;;;5002016;28;20050;-80
2024/01/13 11:22:42;;;;;;;23.00;11.93;;;4.00;99.90;;;;;;5034068;28;20140;-80
2024/01/13 11:25:29;;;;;;;22.23;11.77;;;4.10;99.90;;;;;;5021863;28;20045;-79
2024/01/13 11:28:01;;;;;;;28.77;14.15;;;4.10;99.90;;;;;;5009661;28;20060;-79
2024/01/13 11:30:37;;;;;;;27.73;13.27;;;4.10;99.90;;;;;;5017786;28;20073;-78
2024/01/13 11:33:13;;;;;;;24.88;12.50;;;4.10;99.90;;;;;;5033994;28;20060;-80
2024/01/13 11:35:50;;;;;;;28.58;13.10;;;4.10;99.90;;;;;;5001460;28;20152;-79
2024/01/13 11:38:17;;;;;;;25.35;13.20;;;4.20;99.90;;;;;;5017025;28;20057;-79
2024/01/13 11:40:46;;;;;;;28.60;13.55;;;4.10;99.90;;;;;;5017673;28;20037;-79
2024/01/13 11:43:25;;;;;;;27.45;13.02;;;4.10;99.90;;;;;;5017583;28;20395;-81
2024/01/13 11:45:53;;;;;;;30.95;16.13;;;4.10;99.90;;;;;;5020673;28;20042;-81
2024/01/13 11:48:33;;;;;;;30.42;14.65;;;4.10;99.90;;;;;;5029752;28;20045;-83
2024/01/13 11:51:01;;;;;;;27.02;12.52;;;4.10;99.90;;;;;;5034481;28;20045;-83
2024/01/13 11:53:35;;;;;;;26.75;14.00;;;4.10;99.90;;;;;;5001524;28;20148;-81
2024/01/13 11:56:06;;;;;;;27.35;12.52;;;4.20;99.90;;;;;;5033933;28;20068;-82
2024/01/13 11:58:37;;;;;;;27.73;14.00;;;4.20;99.90;;;;;;5020068;28;20049;-82
2024/01/13 12:01:05;;;;;;;29.48;13.63;;;4.20;99.90;;;;;;5013955;28;20045;-82
2024/01/13 12:03:33;;;;;;;26.13;12.82;;;4.20;99.90;;;;;;5028154;28;20046;-80
2024/01/13 12:06:03;;;;;;;30.67;14.13;;;4.20;99.90;;;;;;5017732;28;20042;-81
2024/01/13 12:08:31;;;;;;;26.95;13.80;;;4.30;99.90;;;;;;5033392;28;20061;-78
2024/01/13 12:10:58;;;;;;;28.20;13.20;;;4.30;99.90;;;;;;5000812;28;20041;-80
2024/01/13 12:13:25;;;;;;;28.85;14.93;;;4.30;99.90;;;;;;4997644;28;20046;-80
2024/01/13 12:16:04;;;;;;;29.17;14.90;;;4.40;99.90;;;;;;5011873;28;20056;-80
2024/01/13 12:18:34;;;;;;;29.10;13.10;;;4.40;99.90;;;;;;4997887;28;20053;-78
2024/01/13 12:21:03;;;;;;;26.38;13.68;;;4.50;99.90;;;;;;5004119;28;20054;-80
2024/01/13 12:23:31;;;;;;;29.85;14.77;;;4.60;99.90;;;;;;5010657;28;20059;-79
2024/01/13 12:25:58;;;;;;;33.78;17.20;;;4.50;99.90;;;;;;5016662;28;20065;-82
2024/01/13 12:28:40;;;;;;;29.40;14.57;;;4.50;99.90;;;;;;5013351;28;20069;-80
2024/01/13 12:31:08;;;;;;;34.00;16.95;;;4.40;99.90;;;;;;5011595;28;20042;-81
2024/01/13 12:33:35;;;;;;;31.65;14.93;;;4.40;99.90;;;;;;5016740;28;20081;-81
2024/01/13 12:36:09;;;;;;;35.53;16.70;;;4.40;99.90;;;;;;5005059;28;20049;-80
2024/01/13 12:38:39;;;;;;;32.15;16.13;;;4.40;99.90;;;;;;5012952;28;20486;-80
2024/01/13 12:41:06;;;;;;;34.20;17.23;;;4.40;99.90;;;;;;4988923;28;20046;-78
2024/01/13 12:43:36;;;;;;;34.88;17.42;;;4.40;99.90;;;;;;5002996;28;20053;-77
2024/01/13 12:46:03;;;;;;;35.35;18.25;;;4.40;99.90;;;;;;5022010;28;20057;-80
2024/01/13 12:48:30;;;;;;;35.08;18.83;;;4.40;99.90;;;;;;5015637;28;20433;-80